Nallen, West Virginia
Current Conditions -  °F | °C
As of 10:51 AM on Thursday 30 Oct 2014 (Local Time) from KBKW Reporting Station
Overcast Overcast  
Wind Chill: 36°   Ceiling: 3000
Heat Index: 41°   Visibility: 10mi
Dew Point: 32°   Wind: 7mph
Humidity: 70%   Direction: 10°N
Pressure: 30.11"   Gusts: NA
Location:  38.11°N, 80.88°W
Report Text: KBKW 301451Z AUTO 01006KT 10SM OVC030 05/00 A3011 RMK AO2 SLP209 T00500000 51008 TSNO
Loading
Personal Weather Stations






























Interactive Weather Map
Tropical Storm Tracking
New forecast layout! Learn more

10-Day Weather Forecast

Advertisements
Track Severe Weather on mobile